Ellis Grove, Illinois
Current Conditions -  °F | °C
As of 4:15 AM on Tuesday 27 Jan 2015 (Local Time) from KSAR Reporting Station
Clear Clear  
Wind Chill: 30°   Ceiling: Unl
Heat Index: 34°   Visibility: 10mi
Dew Point: 32°   Wind: 5mph
Humidity: 92%   Direction: 280°W
Pressure: 29.97"   Gusts: NA
Location:  38.01°N, 89.91°W
Report Text: KSAR 271015Z AUTO 28004KT 10SM CLR 01/00 A2997 RMK AO2 T00101001
Loading
Personal Weather Stations






























Interactive Weather Map New forecast layout! Learn more

10-Day Weather Forecast

Advertisements
Track Severe Weather on mobile